Time;durP1;ratioP1;P1;durP2;ratioP2;P2;SDS_P1;SDS_P2;PMS_P1;PMS_P2;Temp;Humidity;BMP_temperature;BMP_pressure;BME280_temperature;BME280_humidity;BME280_pressure;Samples;Min_cycle;Max_cycle;Signal;HPM_P1;HPM_P2
2021/12/10 11:13:13;;;;;;;8.47;3.17;;;;;;;3.24;88.94;99043.56;5291426;27;20364;-74
2021/12/10 11:16:05;;;;;;;11.93;3.70;;;;;;;3.27;88.03;99042.56;5290591;28;20067;-74
2021/12/10 11:18:45;;;;;;;9.57;3.07;;;;;;;3.28;87.20;99043.38;5288264;28;20056;-74
2021/12/10 11:21:33;;;;;;;10.83;3.00;;;;;;;3.31;86.91;99049.22;5290093;28;20032;-74
2021/12/10 11:24:13;;;;;;;14.43;3.67;;;;;;;3.31;87.36;99054.41;5289346;28;20069;-74
2021/12/10 11:26:50;;;;;;;11.80;3.23;;;;;;;3.26;86.71;99049.47;5289758;28;20711;-74
2021/12/10 11:29:31;;;;;;;10.57;2.83;;;;;;;3.30;87.29;99044.13;5289207;28;20034;-74
2021/12/10 11:32:11;;;;;;;9.40;3.63;;;;;;;3.29;85.98;99043.28;5290983;28;20466;-74
2021/12/10 11:35:01;;;;;;;12.97;3.23;;;;;;;3.39;86.77;99048.75;5290081;28;20024;-74
2021/12/10 11:37:57;;;;;;;14.67;3.50;;;;;;;3.41;87.54;99059.00;5289047;28;20028;-75
2021/12/10 11:40:38;;;;;;;13.10;2.83;;;;;;;3.33;87.31;99052.56;5289783;28;20402;-74
2021/12/10 11:48:41;;;;;;;16.23;3.60;;;;;;;3.50;88.25;99058.47;5290466;28;20064;-75
2021/12/10 11:51:19;;;;;;;10.23;3.20;;;;;;;3.37;88.11;99059.19;5290185;28;20025;-74
2021/12/10 11:53:52;;;;;;;10.07;2.97;;;;;;;3.41;88.92;99069.38;5290137;28;20032;-74
2021/12/10 11:56:45;;;;;;;6.73;3.00;;;;;;;3.46;89.07;99072.50;5288988;28;20027;-75
2021/12/10 11:59:24;;;;;;;15.83;2.97;;;;;;;3.25;89.72;99060.75;5288563;28;20596;-75
2021/12/10 12:02:14;;;;;;;7.90;3.03;;;;;;;3.29;91.59;99071.75;5290324;28;20443;-75
2021/12/10 12:04:51;;;;;;;10.80;3.37;;;;;;;3.26;91.28;99071.94;5290003;28;20107;-71
2021/12/10 12:07:29;;;;;;;8.33;3.03;;;;;;;3.29;91.30;99076.94;5289569;28;20477;-71
2021/12/10 12:10:26;;;;;;;9.97;3.00;;;;;;;3.30;92.66;99068.25;5289142;28;20060;-71
2021/12/10 12:15:50;;;;;;;8.83;3.30;;;;;;;3.26;92.22;99087.47;5289569;28;20060;-70
2021/12/10 12:18:25;;;;;;;12.90;2.63;;;;;;;3.28;92.32;99085.63;5288405;28;20039;-71
2021/12/10 12:21:37;;;;;;;13.77;3.10;;;;;;;3.23;91.81;99092.81;5289645;28;20017;-71
2021/12/10 12:27:06;;;;;;;10.75;3.05;;;;;;;3.06;91.72;99092.03;5275480;28;20029;-71
2021/12/10 12:29:47;;;;;;;11.60;3.10;;;;;;;3.09;93.73;99081.50;5275627;28;20450;-70
2021/12/10 12:32:33;;;;;;;10.63;3.77;;;;;;;3.19;93.20;99089.59;5274815;28;20052;-73
2021/12/10 12:35:16;;;;;;;8.50;2.80;;;;;;;3.17;91.80;99090.56;5274186;28;20542;-71
2021/12/10 12:37:48;;;;;;;15.10;3.90;;;;;;;3.21;93.48;99094.66;5275449;28;20099;-71
2021/12/10 12:40:19;;;;;;;16.03;3.27;;;;;;;3.21;92.83;99100.66;5274145;28;20498;-71
2021/12/10 12:42:50;;;;;;;10.87;3.53;;;;;;;3.31;94.04;99111.31;5275355;28;20062;-71
2021/12/10 12:45:24;;;;;;;11.07;3.23;;;;;;;3.35;93.87;99111.97;5274947;28;20025;-73
2021/12/10 12:47:56;;;;;;;9.48;2.72;;;;;;;3.41;92.41;99118.53;5274068;28;20043;-75
2021/12/10 12:50:32;;;;;;;13.53;5.03;;;;;;;3.33;92.91;99121.59;5275207;28;20475;-75
2021/12/10 12:53:11;;;;;;;12.03;2.93;;;;;;;3.38;92.91;99109.22;5275289;28;20094;-74
2021/12/10 12:55:55;;;;;;;12.00;3.37;;;;;;;3.39;93.35;99119.47;5272600;28;20020;-74
2021/12/10 12:58:39;;;;;;;9.47;2.97;;;;;;;3.44;93.70;99126.97;5273716;28;20043;-74
2021/12/10 13:01:20;;;;;;;8.25;3.28;;;;;;;3.34;92.25;99129.25;5273324;28;20029;-74
2021/12/10 13:04:08;;;;;;;14.50;2.87;;;;;;;3.31;92.77;99126.84;5274644;28;20024;-75
2021/12/10 13:06:54;;;;;;;11.20;3.07;;;;;;;3.23;92.65;99118.69;5273205;28;20062;-71
2021/12/10 13:09:42;;;;;;;10.57;3.53;;;;;;;3.38;92.59;99141.09;5273742;28;20029;-72
2021/12/10 13:15:17;;;;;;;10.50;3.67;;;;;;;3.41;91.39;99150.44;5274440;28;20024;-71
2021/12/10 13:17:56;;;;;;;10.30;3.50;;;;;;;3.41;90.98;99152.19;5272849;28;20032;-72
2021/12/10 13:20:32;;;;;;;8.07;3.20;;;;;;;3.33;90.83;99161.25;5274228;28;20073;-72
2021/12/10 13:23:08;;;;;;;8.83;4.30;;;;;;;3.41;91.14;99157.38;5274776;28;20035;-71
2021/12/10 13:25:41;;;;;;;12.30;4.77;;;;;;;3.33;89.68;99160.41;5273425;28;20044;-72
2021/12/10 13:28:12;;;;;;;12.40;4.70;;;;;;;3.18;90.51;99151.75;5274541;28;20039;-72
2021/12/10 13:30:47;;;;;;;9.50;3.20;;;;;;;3.30;93.20;99170.94;5274116;28;20029;-72
2021/12/10 13:33:29;;;;;;;12.03;3.80;;;;;;;3.37;93.54;99167.91;5273883;28;20513;-72
2021/12/10 13:36:03;;;;;;;15.20;5.50;;;;;;;3.35;93.53;99174.09;5271709;28;20048;-72
2021/12/10 13:38:35;;;;;;;9.73;3.87;;;;;;;3.34;93.80;99173.25;5274195;28;20033;-72
2021/12/10 13:41:10;;;;;;;10.67;3.53;;;;;;;3.38;93.96;99184.25;5273217;28;20031;-71
2021/12/10 13:43:47;;;;;;;14.10;4.80;;;;;;;3.42;94.52;99174.56;5273840;28;20048;-72
2021/12/10 13:46:21;;;;;;;11.17;4.10;;;;;;;3.41;93.82;99185.81;5273545;28;20471;-72
2021/12/10 13:48:57;;;;;;;12.15;3.92;;;;;;;3.38;93.44;99185.09;5274338;28;20033;-72
2021/12/10 13:51:34;;;;;;;12.57;4.47;;;;;;;3.41;94.08;99191.84;5273783;28;20101;-75
2021/12/10 13:54:09;;;;;;;8.70;3.53;;;;;;;3.37;93.36;99193.78;5272754;28;20028;-75
2021/12/10 13:56:50;;;;;;;15.73;4.53;;;;;;;3.34;93.07;99199.13;5273460;28;20028;-72
2021/12/10 13:59:27;;;;;;;6.97;3.60;;;;;;;3.38;92.42;99211.00;5272053;28;20039;-73
2021/12/10 14:02:10;;;;;;;9.83;3.43;;;;;;;3.36;92.99;99211.97;5273990;28;20063;-75
2021/12/10 14:04:44;;;;;;;8.77;4.03;;;;;;;3.22;92.79;99212.75;5273161;28;20450;-72
2021/12/10 14:07:20;;;;;;;6.50;3.85;;;;;;;3.22;94.04;99218.75;5272823;28;20626;-75
2021/12/10 14:09:55;;;;;;;9.43;3.83;;;;;;;3.18;93.47;99214.66;5272745;28;20055;-75
2021/12/10 14:12:43;;;;;;;10.73;4.43;;;;;;;3.22;93.57;99215.34;5273282;28;20120;-75
2021/12/10 14:15:44;;;;;;;6.93;4.00;;;;;;;3.25;93.56;99235.84;5272773;28;20079;-75
2021/12/10 14:18:24;;;;;;;7.70;4.33;;;;;;;3.18;92.76;99230.19;5273490;28;20035;-75
2021/12/10 14:21:04;;;;;;;11.97;4.60;;;;;;;3.22;92.81;99225.69;5273273;28;20024;-73
2021/12/10 14:23:46;;;;;;;11.10;5.50;;;;;;;3.20;93.34;99235.28;5272814;28;20029;-70
2021/12/10 14:26:21;;;;;;;10.63;4.20;;;;;;;3.14;93.15;99244.22;5272372;28;20024;-70
2021/12/10 14:29:02;;;;;;;12.80;4.53;;;;;;;3.22;92.55;99236.03;5271802;28;20032;-69
2021/12/10 14:31:45;;;;;;;13.10;6.30;;;;;;;3.29;92.43;99255.47;5273071;28;20383;-70
2021/12/10 14:34:21;;;;;;;8.40;3.83;;;;;;;3.33;94.07;99254.41;5273165;28;20090;-70
2021/12/10 14:37:07;;;;;;;12.30;4.37;;;;;;;3.34;93.44;99256.06;5273471;28;20486;-70
2021/12/10 14:40:05;;;;;;;12.83;4.67;;;;;;;3.23;92.15;99258.41;5271902;28;20059;-70
2021/12/10 14:42:37;;;;;;;9.73;4.90;;;;;;;3.21;91.96;99270.59;5272504;28;20560;-70
2021/12/10 14:45:11;;;;;;;15.07;5.37;;;;;;;3.25;93.91;99277.25;5272832;28;20095;-70
2021/12/10 14:47:43;;;;;;;;;;;;;;;3.41;93.44;99276.41;5272472;28;20051;-70
2021/12/10 14:50:17;;;;;;;13.50;5.03;;;;;;;3.29;94.75;99289.13;5273330;28;20314;-70
2021/12/10 14:52:48;;;;;;;9.95;4.18;;;;;;;3.36;95.57;99290.47;5272275;28;20479;-73
2021/12/10 14:55:27;;;;;;;13.43;5.37;;;;;;;3.34;96.64;99286.28;5271978;28;20032;-73
2021/12/10 14:58:27;;;;;;;9.77;4.27;;;;;;;3.58;95.90;99297.03;5272846;28;20024;-75
2021/12/10 15:01:15;;;;;;;8.60;4.07;;;;;;;3.51;96.76;99311.22;5267300;28;20040;-75
2021/12/10 15:03:47;;;;;;;6.33;4.20;;;;;;;3.54;98.13;99324.03;5271438;28;20127;-74
2021/12/10 15:06:18;;;;;;;14.23;4.60;;;;;;;3.55;97.04;99320.50;5272528;28;20028;-74
2021/12/10 15:08:58;;;;;;;9.63;4.40;;;;;;;3.62;96.85;99332.19;5271956;28;20031;-75
2021/12/10 15:11:56;;;;;;;8.63;4.07;;;;;;;3.68;97.12;99337.97;5271729;28;20057;-72
2021/12/10 15:14:36;;;;;;;12.43;5.10;;;;;;;3.58;97.63;99335.88;5270539;28;20036;-75
2021/12/10 15:17:12;;;;;;;9.90;4.93;;;;;;;3.43;96.73;99334.97;5251808;28;20052;-69
2021/12/10 15:19:47;;;;;;;11.57;5.20;;;;;;;3.42;97.17;99329.88;5271673;28;20037;-70
2021/12/10 15:22:31;;;;;;;11.07;5.57;;;;;;;3.44;96.96;99334.03;5271368;28;20052;-71
2021/12/10 15:25:11;;;;;;;14.53;5.23;;;;;;;3.54;98.17;99349.06;5267861;28;20040;-73
2021/12/10 15:27:44;;;;;;;10.93;4.73;;;;;;;3.62;98.16;99363.25;5269521;28;20093;-70
2021/12/10 15:30:23;;;;;;;8.40;4.27;;;;;;;3.47;97.59;99370.09;5271985;28;20081;-70
2021/12/10 15:33:06;;;;;;;14.07;5.00;;;;;;;3.51;97.24;99365.59;5272155;28;20028;-69
2021/12/10 15:35:46;;;;;;;10.20;4.83;;;;;;;3.57;97.41;99369.59;5272296;28;20932;-70
2021/12/10 15:38:27;;;;;;;8.47;4.00;;;;;;;3.62;97.76;99385.72;5272344;28;20056;-70
2021/12/10 15:41:05;;;;;;;11.67;4.70;;;;;;;3.42;97.74;99381.63;5271431;28;20374;-70
2021/12/10 15:43:43;;;;;;;10.40;5.00;;;;;;;3.50;98.30;99398.44;5272132;28;20104;-72
2021/12/10 15:46:27;;;;;;;8.70;4.80;;;;;;;3.66;97.16;99407.94;5272138;28;20024;-73
2021/12/10 15:49:07;;;;;;;15.30;5.75;;;;;;;3.50;97.53;99413.13;5272032;28;20033;-77
2021/12/10 15:51:52;;;;;;;15.17;6.47;;;;;;;3.63;98.39;99419.28;5271635;28;20036;-78
2021/12/10 15:54:32;;;;;;;10.87;5.57;;;;;;;3.61;98.24;99423.72;5250051;28;20483;-78
2021/12/10 15:57:10;;;;;;;9.90;5.73;;;;;;;3.55;98.08;99434.41;5252521;28;20169;-74
2021/12/10 15:59:45;;;;;;;12.43;7.10;;;;;;;3.62;98.06;99435.75;5275261;28;20056;-74
2021/12/10 16:02:21;;;;;;;;;;;;;;;3.73;96.75;99444.72;5276761;28;20391;-73
2021/12/10 16:05:02;;;;;;;14.17;8.00;;;;;;;3.66;98.70;99451.13;5273957;28;19912;-79
2021/12/10 16:07:38;;;;;;;11.67;6.90;;;;;;;3.60;98.30;99452.28;5273422;28;20031;-72
2021/12/10 16:10:14;;;;;;;12.73;6.80;;;;;;;3.59;98.24;99467.00;5275427;28;20024;-79
2021/12/10 16:12:56;;;;;;;14.63;7.77;;;;;;;3.70;98.84;99470.78;5274083;28;20040;-77
2021/12/10 16:15:36;;;;;;;13.03;6.20;;;;;;;3.60;98.17;99473.84;5275142;28;20032;-75
2021/12/10 16:18:10;;;;;;;11.30;6.37;;;;;;;3.56;98.78;99484.44;5275970;28;20025;-78
2021/12/10 16:20:51;;;;;;;14.83;6.70;;;;;;;3.61;99.16;99491.03;5269594;28;20024;-77
2021/12/10 16:23:34;;;;;;;13.10;7.93;;;;;;;3.55;98.45;99493.13;5273625;28;20634;-81
2021/12/10 16:26:15;;;;;;;17.67;7.77;;;;;;;3.59;98.95;99508.44;5273689;28;20028;-80
2021/12/10 16:28:54;;;;;;;16.63;7.57;;;;;;;3.50;98.85;99498.53;5275172;28;20056;-82
2021/12/10 16:31:26;;;;;;;14.00;8.43;;;;;;;3.51;99.00;99508.81;5270917;28;20032;-83
2021/12/10 16:34:00;;;;;;;10.33;6.93;;;;;;;3.49;99.08;99500.28;5273256;28;20032;-73
2021/12/10 16:36:31;;;;;;;18.27;7.77;;;;;;;3.41;98.33;99519.72;5253799;28;20025;-73
2021/12/10 16:39:05;;;;;;;15.30;7.73;;;;;;;3.40;98.58;99524.06;5270170;28;20031;-76
2021/12/10 16:41:45;;;;;;;14.57;7.00;;;;;;;3.53;97.54;99532.03;5272224;28;20060;-75
2021/12/10 16:44:17;;;;;;;11.43;7.30;;;;;;;3.42;98.87;99529.16;5268006;28;20036;-76
2021/12/10 16:46:52;;;;;;;11.20;7.60;;;;;;;3.45;98.37;99541.94;5273128;28;20044;-72
2021/12/10 16:49:27;;;;;;;13.07;9.07;;;;;;;3.42;99.17;99534.34;5273112;28;20021;-74
2021/12/10 16:52:07;;;;;;;14.57;9.27;;;;;;;3.45;99.03;99547.13;5272917;28;20162;-76
2021/12/10 16:54:40;;;;;;;14.30;10.13;;;;;;;3.47;100.00;99555.66;5272571;28;20373;-75
2021/12/10 16:57:17;;;;;;;17.83;9.60;;;;;;;3.54;99.28;99566.53;5266198;28;20384;-74
2021/12/10 16:59:52;;;;;;;13.33;10.83;;;;;;;3.49;99.68;99552.06;5263825;28;20033;-71
2021/12/10 17:02:30;;;;;;;12.07;8.90;;;;;;;3.56;99.13;99570.69;5264492;28;20487;-71
2021/12/10 17:05:07;;;;;;;12.67;8.33;;;;;;;3.50;99.37;99583.97;5267153;28;20644;-73
2021/12/10 17:07:42;;;;;;;11.57;9.40;;;;;;;3.48;99.15;99585.78;5272600;28;20036;-75
2021/12/10 17:10:24;;;;;;;16.63;9.67;;;;;;;3.42;98.71;99586.13;5273443;28;20033;-70
2021/12/10 17:13:13;;;;;;;17.23;9.40;;;;;;;3.47;98.02;99584.94;5273639;28;20052;-72
2021/12/10 17:15:45;;;;;;;12.97;9.60;;;;;;;3.35;98.22;99604.53;5273624;28;20631;-71
2021/12/10 17:18:22;;;;;;;11.33;9.53;;;;;;;3.54;98.95;99603.63;5274065;28;20104;-71
2021/12/10 17:21:01;;;;;;;17.87;10.70;;;;;;;3.54;98.48;99610.53;5273571;28;20116;-71
2021/12/10 17:23:33;;;;;;;12.77;9.37;;;;;;;3.42;98.45;99610.22;5273070;28;20036;-71
2021/12/10 17:26:10;;;;;;;12.77;9.73;;;;;;;3.56;98.09;99614.72;5273041;28;20375;-71
2021/12/10 17:28:47;;;;;;;10.80;8.57;;;;;;;3.42;97.89;99625.75;5273723;28;20046;-71
2021/12/10 17:31:24;;;;;;;13.53;9.33;;;;;;;3.38;97.74;99625.09;5275085;28;20033;-74
2021/12/10 17:34:01;;;;;;;11.03;9.53;;;;;;;3.45;97.88;99635.13;5272672;28;20483;-73
2021/12/10 17:36:40;;;;;;;16.77;10.93;;;;;;;3.40;98.22;99630.19;5272235;28;20029;-74
2021/12/10 17:39:15;;;;;;;15.27;10.90;;;;;;;3.48;97.29;99643.59;5265461;28;20031;-74
2021/12/10 17:41:50;;;;;;;12.27;10.23;;;;;;;3.29;97.76;99646.25;5269989;28;20021;-74
2021/12/10 17:44:23;;;;;;;14.83;10.60;;;;;;;3.33;98.01;99658.13;5270126;28;20502;-71
2021/12/10 17:47:03;;;;;;;14.43;11.07;;;;;;;3.26;98.86;99662.75;5269402;28;20244;-73
2021/12/10 17:49:40;;;;;;;16.63;11.87;;;;;;;3.27;98.77;99673.94;5266430;28;20077;-75
2021/12/10 17:52:16;;;;;;;17.17;11.53;;;;;;;3.31;97.61;99678.06;5271068;28;20043;-76
2021/12/10 17:54:51;;;;;;;18.93;11.50;;;;;;;3.39;98.41;99675.09;5256641;28;20467;-77
2021/12/10 17:57:30;;;;;;;16.15;12.15;;;;;;;3.46;98.26;99689.41;5270022;28;20032;-74
2021/12/10 18:00:12;;;;;;;16.27;11.97;;;;;;;3.43;98.73;99681.81;5267884;28;20423;-80
2021/12/10 18:02:44;;;;;;;17.20;12.07;;;;;;;3.33;98.40;99707.31;5258519;28;20063;-72
2021/12/10 18:05:21;;;;;;;16.57;11.37;;;;;;;3.41;98.59;99706.06;5262307;28;20016;-75
2021/12/10 18:07:53;;;;;;;14.70;12.47;;;;;;;3.30;98.46;99710.03;5263144;28;20089;-72
2021/12/10 18:10:31;;;;;;;19.60;14.57;;;;;;;3.32;99.20;99722.88;5267823;28;20081;-71
2021/12/10 18:13:06;;;;;;;17.40;13.10;;;;;;;3.44;98.68;99721.47;5264146;28;20102;-69
2021/12/10 18:15:45;;;;;;;18.57;14.23;;;;;;;3.43;97.69;99724.97;5266591;28;20469;-73
2021/12/10 18:18:22;;;;;;;17.70;12.87;;;;;;;3.30;98.34;99735.91;5261881;28;20495;-74
2021/12/10 18:21:01;;;;;;;20.10;15.23;;;;;;;3.30;97.89;99735.91;5264301;28;20031;-77
2021/12/10 18:23:36;;;;;;;20.63;16.23;;;;;;;3.34;98.09;99750.38;5260069;28;20186;-71
2021/12/10 18:26:12;;;;;;;21.70;16.70;;;;;;;3.41;98.34;99758.69;5263671;28;20094;-70
2021/12/10 18:28:56;;;;;;;24.20;17.33;;;;;;;3.39;97.77;99765.69;5259808;28;20087;-72
2021/12/10 18:31:33;;;;;;;28.43;20.37;;;;;;;3.20;98.13;99763.13;5266444;28;20399;-72
2021/12/10 18:34:14;;;;;;;28.70;18.47;;;;;;;3.34;98.45;99778.00;5269722;28;20029;-74
2021/12/10 18:36:49;;;;;;;21.70;16.17;;;;;;;3.39;98.40;99776.88;5260811;28;20071;-78
2021/12/10 18:39:26;;;;;;;21.37;16.47;;;;;;;3.41;98.37;99779.41;5266886;28;20031;-76
2021/12/10 18:42:07;;;;;;;22.70;17.07;;;;;;;3.34;97.67;99788.34;5259100;28;20498;-76
2021/12/10 18:44:44;;;;;;;24.23;16.83;;;;;;;3.30;98.87;99792.84;5260159;28;20029;-84
2021/12/10 18:47:15;;;;;;;23.70;16.93;;;;;;;3.41;98.91;99804.44;5253402;28;20466;-80
2021/12/10 18:49:47;;;;;;;21.63;15.33;;;;;;;3.34;98.03;99801.31;5259070;28;20057;-89
2021/12/10 18:52:23;;;;;;;20.47;15.67;;;;;;;3.44;98.56;99809.50;5266548;28;20036;-90
2021/12/10 18:55:00;;;;;;;22.90;18.07;;;;;;;3.31;98.66;99819.56;5275360;28;20463;-89
2021/12/10 18:57:34;;;;;;;27.17;18.17;;;;;;;3.45;98.65;99826.69;5272854;28;20099;-85
2021/12/10 19:00:20;;;;;;;26.80;18.33;;;;;;;3.44;99.10;99831.03;5265287;28;20052;-85
2021/12/10 19:02:54;;;;;;;26.30;17.60;;;;;;;3.25;98.48;99831.03;5259480;28;20098;-86
2021/12/10 19:05:50;;;;;;;27.63;19.02;;;;;;;3.36;99.07;99823.63;5261716;28;20028;-77
2021/12/10 19:08:52;;;;;;;22.63;16.33;;;;;;;3.48;98.91;99839.50;5255171;28;20020;-75
2021/12/10 19:11:27;;;;;;;24.07;17.20;;;;;;;3.42;98.39;99856.13;5265036;28;20071;-75
2021/12/10 19:14:10;;;;;;;;;;;;;;;3.63;97.92;99859.50;5269145;28;20025;-77
2021/12/10 19:16:47;;;;;;;24.50;19.13;;;;;;;3.54;98.38;99866.84;5266418;28;20686;-76
2021/12/10 19:19:23;;;;;;;23.13;18.80;;;;;;;3.47;98.64;99859.34;5262247;28;20548;-75
2021/12/10 19:22:02;;;;;;;26.77;19.70;;;;;;;3.62;98.15;99869.91;5269316;28;20395;-70
2021/12/10 19:24:46;;;;;;;26.20;20.70;;;;;;;3.60;98.23;99877.75;5262932;28;20443;-75
2021/12/10 19:27:26;;;;;;;22.40;19.53;;;;;;;3.58;97.81;99871.00;5270968;28;20123;-82
2021/12/10 19:30:07;;;;;;;28.93;18.97;;;;;;;3.59;98.59;99878.69;5258578;28;20310;-80
2021/12/10 19:32:42;;;;;;;24.30;20.43;;;;;;;3.46;98.89;99880.13;5266640;28;20710;-84
2021/12/10 19:35:20;;;;;;;27.83;21.30;;;;;;;3.54;99.26;99896.19;5274570;28;20454;-84
2021/12/10 19:37:59;;;;;;;24.73;20.73;;;;;;;3.56;99.27;99904.69;5271360;28;20032;-84
2021/12/10 19:40:35;;;;;;;29.43;20.13;;;;;;;3.52;98.66;99913.53;5269866;28;20046;-78
2021/12/10 19:43:08;;;;;;;26.03;19.60;;;;;;;3.58;98.73;99910.66;5270010;28;20033;-84
2021/12/10 19:45:49;;;;;;;30.13;21.43;;;;;;;3.41;98.95;99913.16;5269807;28;20040;-81
2021/12/10 19:48:24;;;;;;;27.27;21.67;;;;;;;3.45;99.17;99935.41;5266300;28;20029;-79
2021/12/10 19:51:07;;;;;;;26.87;20.97;;;;;;;3.49;99.17;99936.97;5266420;28;20024;-82
2021/12/10 19:53:46;;;;;;;35.30;21.77;;;;;;;3.50;98.45;99944.66;5266811;28;20263;-83
2021/12/10 19:56:22;;;;;;;29.93;20.57;;;;;;;3.37;98.66;99949.53;5264939;28;20029;-76
2021/12/10 19:59:18;;;;;;;27.43;20.20;;;;;;;3.39;98.69;99952.06;5270279;28;20039;-79
2021/12/10 20:01:55;;;;;;;30.53;22.47;;;;;;;3.30;99.10;99942.94;5270933;28;20070;-76
2021/12/10 20:04:34;;;;;;;29.87;22.10;;;;;;;3.37;98.83;99965.06;5268222;28;20047;-82
2021/12/10 20:07:07;;;;;;;28.03;21.47;;;;;;;3.44;99.17;99970.00;5268994;28;20036;-79
2021/12/10 20:09:52;;;;;;;30.17;22.60;;;;;;;3.51;99.49;99973.97;5270513;28;20668;-80
2021/12/10 20:12:30;;;;;;;29.13;20.23;;;;;;;3.56;99.20;99977.19;5268198;28;20054;-76
2021/12/10 20:15:31;;;;;;;29.17;22.07;;;;;;;3.53;99.41;99989.44;5270646;28;20441;-84
2021/12/10 20:18:10;;;;;;;35.43;21.63;;;;;;;3.42;99.19;99984.75;5264289;28;20041;-77
2021/12/10 20:20:47;;;;;;;31.80;22.53;;;;;;;3.48;99.54;99997.41;5268410;28;20029;-75
2021/12/10 20:23:28;;;;;;;27.50;21.97;;;;;;;3.53;98.82;99999.78;5270895;28;20047;-77
2021/12/10 20:26:08;;;;;;;30.27;21.10;;;;;;;3.53;98.67;100016.19;5269271;28;20081;-86
2021/12/10 20:28:43;;;;;;;32.13;21.87;;;;;;;3.51;99.07;100017.97;5266993;28;20113;-75
2021/12/10 20:31:21;;;;;;;33.93;22.73;;;;;;;3.35;99.12;100029.00;5289564;28;20037;-85
2021/12/10 20:34:09;;;;;;;30.37;22.23;;;;;;;3.47;99.33;100021.63;5274162;28;20030;-82
2021/12/10 20:36:44;;;;;;;31.27;22.37;;;;;;;3.47;99.13;100029.41;5268054;28;20782;-76
2021/12/10 20:39:30;;;;;;;33.80;22.73;;;;;;;3.50;99.67;100034.44;5270378;28;20035;-82
2021/12/10 20:42:07;;;;;;;29.77;21.93;;;;;;;3.58;99.01;100034.13;5267035;28;20052;-76
2021/12/10 20:44:46;;;;;;;32.13;22.87;;;;;;;3.53;98.74;100055.00;5272768;28;20218;-86
2021/12/10 20:47:22;;;;;;;32.07;21.77;;;;;;;3.55;98.63;100053.19;5272759;28;20052;-81
2021/12/10 20:50:08;;;;;;;40.73;23.23;;;;;;;3.40;99.02;100062.47;5267047;28;20033;-78
2021/12/10 20:52:52;;;;;;;;;;;;;;;3.68;98.57;100071.66;5272591;28;20028;-84
2021/12/10 20:55:26;;;;;;;33.53;23.17;;;;;;;3.53;98.48;100082.63;5271837;28;19916;-82
2021/12/10 20:58:03;;;;;;;36.75;23.10;;;;;;;3.51;98.83;100091.31;5279097;28;20074;-80
2021/12/10 21:00:45;;;;;;;35.80;24.40;;;;;;;3.33;98.88;100098.13;5274548;28;20044;-78
2021/12/10 21:03:21;;;;;;;35.73;24.33;;;;;;;3.38;99.04;100098.78;5272828;28;20024;-76
2021/12/10 21:06:07;;;;;;;37.60;24.87;;;;;;;3.45;99.18;100101.97;5269134;28;20772;-79
2021/12/10 21:08:43;;;;;;;39.97;27.00;;;;;;;3.38;99.46;100106.56;5269071;28;21672;-82
2021/12/10 21:11:23;;;;;;;40.03;24.80;;;;;;;3.32;99.46;100119.72;5272927;28;20449;-78
2021/12/10 21:14:11;;;;;;;40.80;26.17;;;;;;;3.41;99.33;100115.06;5270395;28;20113;-81
2021/12/10 21:16:48;;;;;;;34.83;24.60;;;;;;;3.37;99.50;100119.53;5263128;28;20025;-77
2021/12/10 21:19:25;;;;;;;31.10;22.03;;;;;;;3.41;99.30;100125.44;5263034;28;20040;-84
2021/12/10 21:22:01;;;;;;;29.13;19.80;;;;;;;3.32;99.14;100132.66;5265159;28;20097;-83
2021/12/10 21:24:48;;;;;;;29.20;20.93;;;;;;;3.38;99.49;100129.84;5266545;28;20033;-87
2021/12/10 21:27:27;;;;;;;27.63;19.87;;;;;;;3.42;99.66;100153.00;5268739;28;20024;-80
2021/12/10 21:30:12;;;;;;;31.97;20.10;;;;;;;3.49;99.08;100149.28;5264322;28;20129;-84
2021/12/10 21:32:50;;;;;;;29.90;20.27;;;;;;;3.33;98.63;100146.47;5268924;28;20067;-80
2021/12/10 21:35:32;;;;;;;29.37;19.97;;;;;;;3.41;98.99;100151.31;5271773;28;20112;-81
2021/12/10 21:38:13;;;;;;;27.50;20.00;;;;;;;3.24;98.42;100158.03;5266389;28;20036;-77
2021/12/10 21:41:13;;;;;;;37.27;20.50;;;;;;;3.26;98.55;100159.63;5264807;28;20036;-79
2021/12/10 21:43:53;;;;;;;30.37;19.27;;;;;;;3.24;98.83;100171.81;5264777;28;20036;-75
2021/12/10 21:46:30;;;;;;;30.20;20.10;;;;;;;3.20;98.94;100174.56;5262506;28;20060;-82
2021/12/10 21:49:09;;;;;;;28.67;19.40;;;;;;;3.24;98.65;100178.72;5257891;28;20029;-81
2021/12/10 21:51:51;;;;;;;27.90;19.07;;;;;;;3.22;98.80;100183.13;5263523;28;20064;-80
2021/12/10 21:54:27;;;;;;;24.30;17.87;;;;;;;2.98;97.67;100185.78;5263212;28;20476;-84
2021/12/10 21:57:01;;;;;;;31.23;19.03;;;;;;;2.93;98.73;100188.56;5258750;28;20487;-84
2021/12/10 21:59:37;;;;;;;24.30;18.95;;;;;;;3.02;98.45;100192.50;5261025;28;20035;-82
2021/12/10 22:02:26;;;;;;;25.27;19.30;;;;;;;3.01;98.43;100196.84;5268270;28;20786;-75
2021/12/10 22:05:09;;;;;;;26.67;18.90;;;;;;;2.85;98.26;100206.94;5264513;28;20565;-79
2021/12/10 22:07:46;;;;;;;25.73;17.90;;;;;;;2.93;98.56;100216.16;5263139;28;20021;-82
2021/12/10 22:10:35;;;;;;;30.43;16.67;;;;;;;2.80;98.09;100223.50;5265577;28;20540;-81
2021/12/10 22:13:26;;;;;;;26.37;17.23;;;;;;;2.88;98.31;100231.84;5262021;28;20200;-85
2021/12/10 22:16:25;;;;;;;28.63;16.87;;;;;;;2.90;98.74;100236.06;5260359;28;20513;-84
2021/12/10 22:19:02;;;;;;;23.67;18.50;;;;;;;2.79;98.91;100235.63;5264405;28;20025;-80
2021/12/10 22:21:44;;;;;;;29.40;18.87;;;;;;;2.86;99.15;100249.16;5268437;28;20661;-76
2021/12/10 22:24:23;;;;;;;28.93;19.10;;;;;;;2.77;98.76;100252.94;5256645;28;20083;-79
2021/12/10 22:27:00;;;;;;;24.33;17.90;;;;;;;2.87;98.84;100262.03;5262198;28;20032;-88
2021/12/10 22:29:36;;;;;;;28.73;17.83;;;;;;;2.90;98.36;100272.28;5261100;28;20090;-80
2021/12/10 22:32:13;;;;;;;32.47;18.67;;;;;;;2.77;98.16;100265.88;5253912;28;20410;-79
2021/12/10 22:34:57;;;;;;;31.20;20.37;;;;;;;2.84;98.36;100289.75;5262050;28;20090;-83
2021/12/10 22:37:35;;;;;;;29.60;18.73;;;;;;;2.74;98.51;100291.84;5255176;28;20021;-87
2021/12/10 22:40:23;;;;;;;31.80;19.90;;;;;;;2.72;98.16;100306.56;5262987;28;20570;-77
2021/12/10 22:42:59;;;;;;;29.93;20.37;;;;;;;2.61;98.06;100312.97;5262174;28;20055;-86
2021/12/10 22:45:59;;;;;;;28.50;19.27;;;;;;;2.64;98.05;100318.03;5255437;28;20614;-77
2021/12/10 22:48:41;;;;;;;28.70;19.97;;;;;;;2.57;98.52;100319.13;5255924;28;20040;-88
2021/12/10 22:51:17;;;;;;;28.13;19.67;;;;;;;2.37;98.21;100310.34;5264496;28;22089;-81
2021/12/10 22:53:57;;;;;;;28.43;20.93;;;;;;;2.56;98.21;100329.53;5258450;28;20032;-75
2021/12/10 22:56:34;;;;;;;29.50;20.97;;;;;;;2.42;98.14;100334.28;5256771;28;20057;-78
2021/12/10 22:59:16;;;;;;;33.30;21.33;;;;;;;2.56;98.47;100332.97;5287448;28;20061;-78
2021/12/10 23:01:48;;;;;;;34.50;20.43;;;;;;;2.30;97.45;100339.88;5254691;28;20032;-71
2021/12/10 23:04:43;;;;;;;31.03;21.43;;;;;;;2.38;98.12;100348.19;5254549;28;20037;-72
2021/12/10 23:07:30;;;;;;;28.40;21.63;;;;;;;2.41;98.41;100352.41;5258647;28;20059;-75
2021/12/10 23:10:23;;;;;;;33.47;22.30;;;;;;;2.48;98.44;100348.72;5260691;28;20141;-73
2021/12/10 23:13:07;;;;;;;38.37;21.67;;;;;;;2.41;98.48;100358.44;5262134;28;20143;-71
2021/12/10 23:15:40;;;;;;;30.40;20.90;;;;;;;2.30;98.10;100353.59;5267963;28;20032;-71
2021/12/10 23:18:20;;;;;;;31.40;22.52;;;;;;;2.33;98.68;100360.44;5266991;28;20082;-83
2021/12/10 23:21:10;;;;;;;35.77;22.97;;;;;;;2.44;98.60;100366.97;5264490;28;20039;-72
2021/12/10 23:24:07;;;;;;;30.77;22.37;;;;;;;2.49;98.79;100370.25;5261418;28;20560;-72
2021/12/10 23:26:44;;;;;;;32.13;22.33;;;;;;;2.41;98.88;100375.66;5266199;28;20029;-73
2021/12/10 23:29:35;;;;;;;32.30;21.77;;;;;;;2.39;98.73;100380.88;5263614;28;20033;-67
2021/12/10 23:32:15;;;;;;;34.77;23.87;;;;;;;2.36;98.78;100388.75;5264134;28;20032;-72
2021/12/10 23:34:49;;;;;;;35.63;25.30;;;;;;;2.48;98.91;100394.44;5269239;28;20777;-73
2021/12/10 23:37:23;;;;;;;35.22;25.75;;;;;;;2.29;98.93;100400.19;5264476;28;20024;-71
2021/12/10 23:40:01;;;;;;;38.42;25.35;;;;;;;2.38;99.13;100393.88;5290240;28;20033;-74
2021/12/10 23:42:36;;;;;;;33.50;24.63;;;;;;;2.47;99.51;100393.56;5261246;28;20028;-80
2021/12/10 23:45:30;;;;;;;37.33;24.03;;;;;;;2.51;99.89;100412.41;5264063;28;20043;-73
2021/12/10 23:48:05;;;;;;;36.87;25.67;;;;;;;2.40;99.60;100417.94;5265070;28;20040;-76
